aviador You're here:

CYQV Decoded Metar

YORKTON in SK, CANADA
Report Time2017-12-17 06:00:00
UTC Time2017-12-17 06:14:04
Flight Rules vfr VFR
Wind240° at 08 kt
W.Decomp.*RWY 21: 7.5 kt HW 2.7 kt RCW
RWY 30: 2.7 kt HW 7.5 kt LCW
W.Rank240° ranks 9
Current wind is below 240° avg. (8.1)
Visibility9999 m
Phenomena:N/A
Clouds:Scattered 140 Hf
Scattered 160 Hf
Expected CloudBase > 400 ft AGL from Temp-Dew spread
CeilingNone
Temp-5°C (ISA -17)
Dew Point-6°C (93% RH)
AAT-10.6°C
QNH1012 hPa
Density Alt-335 ft
Elevation1,634 ft
Report Wrong Elevation
Raw Report
CYQV 170600Z AUTO 24008KT 9SM SCT140 SCT160 M05/M06 A2987 RMK
SLP146=

Extra information for CYQV:More info

Metar Taf Metar & Taf Last 4 Metars F.Rules Stats Wind Profile Meteogram Temp Stats Airport Information Weather charts Add Link Nearby VenuesMetar ALERT Operation Metar Decoded Social comments